createdAt,value
2022-08-16T00:00:47.630Z,11.63
2022-08-16T00:03:20.688Z,11.40
2022-08-16T00:05:57.763Z,13.57
2022-08-16T00:17:56.033Z,11.50
2022-08-16T00:29:47.768Z,11.93
2022-08-16T00:41:30.496Z,13.70
2022-08-16T00:44:12.461Z,11.33
2022-08-16T00:46:52.617Z,12.53
2022-08-16T00:49:21.921Z,13.80
2022-08-16T00:51:55.184Z,15.37
2022-08-16T00:58:58.059Z,12.90
2022-08-16T01:01:30.241Z,13.10
2022-08-16T01:08:36.516Z,12.63
2022-08-16T01:20:24.392Z,13.13
2022-08-16T01:23:09.258Z,13.57
2022-08-16T01:30:20.129Z,14.43
2022-08-16T01:33:01.862Z,13.90
2022-08-16T01:35:39.662Z,14.03
2022-08-16T01:38:25.536Z,13.93
2022-08-16T01:41:01.902Z,14.43
2022-08-16T01:48:05.325Z,14.37
2022-08-16T02:05:30.764Z,13.73
2022-08-16T02:07:59.696Z,13.97
2022-08-16T02:15:01.056Z,15.00
2022-08-16T02:17:29.705Z,13.67
2022-08-16T02:24:50.975Z,13.53
2022-08-16T02:27:20.849Z,19.50
2022-08-16T02:29:49.360Z,15.63
2022-08-16T02:36:50.673Z,14.60
2022-08-16T02:39:20.353Z,16.43
2022-08-16T02:46:17.960Z,13.87
2022-08-16T02:48:49.191Z,14.73
2022-08-16T02:51:18.012Z,13.67
2022-08-16T02:53:49.378Z,16.10
2022-08-16T02:56:20.390Z,19.10
2022-08-16T02:58:52.244Z,14.00
2022-08-16T03:01:47.142Z,14.00
2022-08-16T03:09:13.790Z,12.77
2022-08-16T03:16:37.635Z,13.23
2022-08-16T03:19:09.445Z,13.03
2022-08-16T03:21:38.855Z,12.93
2022-08-16T03:24:29.260Z,13.30
2022-08-16T03:26:59.787Z,12.93
2022-08-16T03:29:34.862Z,14.33
2022-08-16T03:36:42.445Z,12.83
2022-08-16T03:39:15.178Z,15.40
2022-08-16T03:41:50.661Z,12.63
2022-08-16T03:49:12.493Z,15.30
2022-08-16T03:51:44.514Z,13.93
2022-08-16T03:54:13.097Z,14.43
2022-08-16T03:56:56.642Z,13.00
2022-08-16T03:59:51.633Z,14.77
2022-08-16T04:02:22.340Z,14.67
2022-08-16T04:04:51.609Z,14.43
2022-08-16T04:07:21.860Z,15.13
2022-08-16T04:09:53.292Z,14.40
2022-08-16T04:12:53.094Z,14.03
2022-08-16T04:16:49.669Z,12.60
2022-08-16T04:19:19.921Z,13.90
2022-08-16T04:21:50.669Z,12.70
2022-08-16T04:29:44.150Z,12.33
2022-08-16T04:32:15.135Z,18.17
2022-08-16T04:34:43.719Z,18.30
2022-08-16T04:37:13.672Z,18.23
2022-08-16T04:48:49.648Z,13.60
2022-08-16T04:51:19.839Z,17.20
2022-08-16T04:54:43.801Z,14.13
2022-08-16T04:57:57.468Z,13.50
2022-08-16T05:10:01.233Z,14.47
2022-08-16T05:12:30.597Z,13.57
2022-08-16T05:15:02.782Z,13.30
2022-08-16T05:17:32.644Z,13.70
2022-08-16T05:20:01.436Z,12.87
2022-08-16T05:27:28.477Z,14.73
2022-08-16T05:30:01.182Z,18.37
2022-08-16T05:32:34.259Z,17.20
2022-08-16T05:44:26.184Z,13.80
2022-08-16T05:47:23.681Z,14.03
2022-08-16T05:54:47.656Z,14.03
2022-08-16T05:57:27.549Z,13.77
2022-08-16T06:04:36.291Z,14.77
2022-08-16T06:07:09.072Z,14.20
2022-08-16T06:14:20.705Z,11.77
2022-08-16T06:16:50.693Z,12.67
2022-08-16T06:19:19.675Z,12.50
2022-08-16T06:26:21.153Z,12.13
2022-08-16T06:28:49.870Z,10.87
2022-08-16T06:32:54.188Z,10.80
2022-08-16T06:39:56.038Z,10.33
2022-08-16T06:42:26.174Z,10.77
2022-08-16T06:49:27.892Z,10.10
2022-08-16T06:52:02.726Z,13.27
2022-08-16T06:54:32.480Z,10.73
2022-08-16T15:11:12.659Z,3.72
2022-08-16T15:13:42.132Z,5.88
2022-08-16T15:16:10.591Z,4.50
2022-08-16T15:18:39.534Z,6.18
2022-08-16T15:21:08.752Z,6.13
2022-08-16T15:23:40.370Z,4.32
2022-08-16T15:26:18.856Z,4.20
2022-08-16T15:29:00.407Z,3.97
2022-08-16T15:31:28.913Z,5.22
2022-08-16T15:33:58.379Z,6.03
2022-08-16T15:36:28.004Z,4.22
2022-08-16T15:39:06.900Z,4.90
2022-08-16T15:42:05.530Z,4.10
2022-08-16T15:44:44.865Z,6.78
2022-08-16T15:47:19.904Z,6.22
2022-08-16T15:49:53.214Z,5.47
2022-08-16T15:52:30.475Z,4.85
2022-08-16T15:55:13.279Z,4.82
2022-08-16T15:57:51.606Z,4.75
2022-08-16T16:00:21.180Z,6.45
2022-08-16T16:02:50.628Z,5.53
2022-08-16T16:05:20.327Z,11.25
2022-08-16T16:07:56.858Z,4.80
2022-08-16T16:10:54.557Z,7.05
2022-08-16T16:13:25.380Z,7.43
2022-08-16T16:15:56.715Z,9.75
2022-08-16T16:18:50.225Z,9.30
2022-08-16T16:21:19.960Z,9.40
2022-08-16T16:23:54.915Z,7.70
2022-08-16T16:26:26.799Z,7.23
2022-08-16T16:29:08.291Z,7.88
2022-08-16T16:31:59.026Z,7.63
2022-08-16T16:34:32.115Z,10.60
2022-08-16T16:37:01.026Z,10.50
2022-08-16T16:39:32.485Z,7.17
2022-08-16T16:42:01.264Z,8.80
2022-08-16T16:44:36.430Z,8.20
2022-08-16T16:47:06.943Z,9.50
2022-08-16T16:49:41.706Z,7.77
2022-08-16T16:52:11.931Z,6.37
2022-08-16T16:55:00.197Z,9.67
2022-08-16T16:57:47.467Z,6.97
2022-08-16T17:00:29.871Z,6.43
2022-08-16T17:02:59.386Z,5.33
2022-08-16T17:05:32.457Z,6.37
2022-08-16T17:08:02.528Z,5.97
2022-08-16T17:10:46.649Z,6.93
2022-08-16T17:13:17.757Z,6.67
2022-08-16T17:15:52.387Z,5.10
2022-08-16T17:19:16.139Z,8.20
2022-08-16T17:21:10.393Z,5.93
2022-08-16T17:23:58.027Z,6.43
2022-08-16T17:26:30.028Z,6.30
2022-08-16T17:29:10.621Z,7.40
2022-08-16T17:31:43.464Z,5.40
2022-08-16T17:34:28.607Z,5.63
2022-08-16T17:37:08.084Z,5.60
2022-08-16T17:39:53.414Z,6.17
2022-08-16T17:42:26.850Z,5.90
2022-08-16T17:44:55.648Z,5.67
2022-08-16T17:47:25.972Z,6.67
2022-08-16T17:49:54.616Z,6.63
2022-08-16T17:52:23.465Z,8.00
2022-08-16T17:54:52.033Z,6.20
2022-08-16T17:57:20.598Z,7.13
2022-08-16T17:59:50.187Z,7.27
2022-08-16T18:02:44.065Z,6.63
2022-08-16T18:05:16.169Z,7.83
2022-08-16T18:07:46.017Z,6.63
2022-08-16T18:10:32.478Z,6.83
2022-08-16T18:13:02.866Z,6.47
2022-08-16T18:15:32.759Z,6.90
2022-08-16T18:18:03.082Z,9.60
2022-08-16T18:20:48.956Z,8.23
2022-08-16T18:23:21.916Z,6.43
2022-08-16T18:25:56.217Z,9.23
2022-08-16T18:28:25.953Z,6.10
2022-08-16T18:31:00.303Z,9.07
2022-08-16T18:33:31.502Z,7.87
2022-08-16T18:36:00.965Z,7.40
2022-08-16T18:38:30.261Z,6.60
2022-08-16T18:40:58.913Z,11.07
2022-08-16T18:44:23.089Z,7.43
2022-08-16T18:46:16.299Z,10.77
2022-08-16T18:48:46.316Z,11.10
2022-08-16T18:51:21.571Z,8.90
2022-08-16T18:53:53.551Z,10.00
2022-08-16T18:56:22.219Z,7.13
2022-08-16T18:58:50.777Z,8.17
2022-08-16T19:01:19.513Z,11.13
2022-08-16T19:03:50.255Z,6.60
2022-08-16T19:06:19.806Z,8.20
2022-08-16T19:08:48.642Z,9.63
2022-08-16T19:11:23.426Z,9.13
2022-08-16T19:13:52.945Z,7.63
2022-08-16T19:16:23.625Z,12.00
2022-08-16T19:18:54.232Z,9.20
2022-08-16T19:21:22.994Z,12.77
2022-08-16T19:23:52.925Z,10.23
2022-08-16T19:26:26.048Z,9.90
2022-08-16T19:28:59.597Z,10.43
2022-08-16T19:31:33.317Z,11.17
2022-08-16T19:34:04.558Z,11.47
2022-08-16T19:36:39.698Z,9.30
2022-08-16T19:39:13.726Z,9.27
2022-08-16T19:41:46.224Z,14.87
2022-08-16T19:44:22.479Z,13.17
2022-08-16T19:46:51.604Z,15.80
2022-08-16T19:49:21.936Z,18.07
2022-08-16T19:51:51.683Z,14.70
2022-08-16T19:54:20.458Z,18.57
2022-08-16T19:56:49.235Z,11.53
2022-08-16T19:59:19.837Z,9.50
2022-08-16T20:01:52.051Z,10.13
2022-08-16T20:04:26.014Z,8.53
2022-08-16T20:06:56.286Z,8.43
2022-08-16T20:09:26.849Z,8.37
2022-08-16T20:11:55.934Z,8.17
2022-08-16T20:14:26.617Z,7.80
2022-08-16T20:17:18.923Z,9.30
2022-08-16T20:19:49.081Z,8.30
2022-08-16T20:22:52.587Z,7.10
2022-08-16T20:25:28.372Z,5.77
2022-08-16T20:27:57.550Z,7.10
2022-08-16T20:30:28.165Z,10.50
2022-08-16T20:32:57.810Z,6.13
2022-08-16T20:35:29.842Z,6.00
2022-08-16T20:38:00.155Z,6.60
2022-08-16T20:40:34.365Z,6.47
2022-08-16T20:43:09.481Z,4.97
2022-08-16T20:45:40.510Z,6.43
2022-08-16T20:48:09.909Z,7.80
2022-08-16T20:50:41.093Z,6.67
2022-08-16T20:53:10.505Z,7.70
2022-08-16T20:55:41.855Z,5.97
2022-08-16T20:58:10.575Z,5.57
2022-08-16T21:00:39.325Z,6.93
2022-08-16T21:03:11.554Z,5.40
2022-08-16T21:05:43.541Z,5.50
2022-08-16T21:08:50.347Z,6.17
2022-08-16T21:11:14.150Z,5.30
2022-08-16T21:13:46.216Z,7.23
2022-08-16T21:16:16.975Z,5.53
2022-08-16T21:18:47.963Z,5.30
2022-08-16T21:21:19.938Z,6.23
2022-08-16T21:23:53.827Z,5.77
2022-08-16T21:26:24.119Z,6.77
2022-08-16T21:28:56.104Z,6.07
2022-08-16T21:31:27.653Z,7.07
2022-08-16T21:33:57.914Z,6.07
2022-08-16T21:36:35.081Z,5.07
2022-08-16T21:39:07.714Z,6.17
2022-08-16T21:41:41.670Z,8.13
2022-08-16T21:44:12.888Z,8.67
2022-08-16T21:46:43.089Z,6.43
2022-08-16T21:49:13.325Z,7.47
2022-08-16T21:51:44.506Z,5.40
2022-08-16T21:54:17.849Z,5.87
2022-08-16T21:56:47.824Z,6.97
2022-08-16T21:59:19.360Z,5.93
2022-08-16T22:01:49.935Z,7.03
2022-08-16T22:04:36.663Z,5.70
2022-08-16T22:07:13.457Z,5.90
2022-08-16T22:09:42.662Z,5.87
2022-08-16T22:12:21.486Z,6.43
2022-08-16T22:14:55.070Z,5.43
2022-08-16T22:17:24.328Z,5.60
2022-08-16T22:19:54.204Z,5.87
2022-08-16T22:22:25.788Z,6.63
2022-08-16T22:25:05.907Z,5.70
2022-08-16T22:27:35.414Z,7.90
2022-08-16T22:30:04.560Z,5.43
2022-08-16T22:32:41.192Z,7.40
2022-08-16T22:35:14.196Z,7.53
2022-08-16T22:38:47.767Z,5.67
2022-08-16T22:40:33.133Z,9.50
2022-08-16T22:43:01.777Z,7.73
2022-08-16T22:45:30.271Z,6.10
2022-08-16T22:48:00.821Z,6.33
2022-08-16T22:50:30.693Z,6.90
2022-08-16T22:53:01.052Z,7.00
2022-08-16T22:55:31.638Z,7.73
2022-08-16T22:58:00.254Z,7.53
2022-08-16T23:00:33.478Z,6.97
2022-08-16T23:03:05.376Z,7.63
2022-08-16T23:05:38.802Z,6.00
2022-08-16T23:08:15.418Z,8.87
2022-08-16T23:11:01.094Z,6.07
2022-08-16T23:13:30.515Z,7.43
2022-08-16T23:16:02.474Z,7.03
2022-08-16T23:18:41.068Z,6.53
2022-08-16T23:21:12.160Z,8.17
2022-08-16T23:23:42.494Z,6.03
2022-08-16T23:26:46.266Z,6.80
2022-08-16T23:29:00.555Z,6.23
2022-08-16T23:31:29.251Z,5.90
2022-08-16T23:33:58.071Z,9.40
2022-08-16T23:36:26.756Z,8.00
2022-08-16T23:38:56.918Z,6.50
2022-08-16T23:41:25.714Z,8.17
2022-08-16T23:43:54.599Z,6.93
2022-08-16T23:46:23.320Z,10.37
2022-08-16T23:49:59.217Z,9.00
2022-08-16T23:51:41.050Z,6.77
2022-08-16T23:54:11.685Z,7.07
2022-08-16T23:56:40.962Z,5.80
2022-08-16T23:59:09.808Z,6.67
